Terminal Aerodrome Forecast
Issued by NWS

Home | Current Version | Previous Version | Text Only | Print | Product List | Glossary Off
Versions: 1 2 3 4 5 6 7 8 9 10 11 12 13 14 15 16 17 18

000
FTUS43 KGRB 211138
TAFMTW
TAF
KMTW 211138Z 2112/2212 24010G18KT 5SM BR BKN016 BKN025
      TEMPO 2112/2115 2SM BR SCT015 BKN025
     FM211500 28008G15KT P6SM SCT015 SCT100
     FM211800 25007KT P6SM FEW100
     FM212200 22006KT P6SM SKC
     FM220800 21005KT P6SM SCT100 WS020/24035KT=

USA.gov is the U.S. government's official web portal to all federal, state and local government web resources and services.